sensor_id;sensor_type;location;lat;lon;timestamp;temperature;humidity
33414;DHT22;60055;41.884;12.534;2022-08-14T00:00:27;24.50;95.20
33414;DHT22;60055;41.884;12.534;2022-08-14T00:02:53;24.50;95.30
33414;DHT22;60055;41.884;12.534;2022-08-14T00:05:20;24.30;95.40
33414;DHT22;60055;41.884;12.534;2022-08-14T00:07:47;24.30;95.20
33414;DHT22;60055;41.884;12.534;2022-08-14T00:10:20;24.20;95.40
33414;DHT22;60055;41.884;12.534;2022-08-14T00:12:52;24.20;95.80
33414;DHT22;60055;41.884;12.534;2022-08-14T00:15:27;24.20;95.30
33414;DHT22;60055;41.884;12.534;2022-08-14T00:17:54;24.30;95.40
33414;DHT22;60055;41.884;12.534;2022-08-14T00:20:26;24.40;94.80
33414;DHT22;60055;41.884;12.534;2022-08-14T00:22:52;24.20;95.00
33414;DHT22;60055;41.884;12.534;2022-08-14T00:25:18;24.10;95.30
33414;DHT22;60055;41.884;12.534;2022-08-14T00:27:44;24.10;95.20
33414;DHT22;60055;41.884;12.534;2022-08-14T00:30:12;24.10;95.40
33414;DHT22;60055;41.884;12.534;2022-08-14T00:32:38;24.00;95.50
33414;DHT22;60055;41.884;12.534;2022-08-14T00:35:06;24.10;95.80
33414;DHT22;60055;41.884;12.534;2022-08-14T00:37:32;24.10;95.30
33414;DHT22;60055;41.884;12.534;2022-08-14T00:39:59;24.10;95.60
33414;DHT22;60055;41.884;12.534;2022-08-14T00:42:25;24.10;95.50
33414;DHT22;60055;41.884;12.534;2022-08-14T00:44:52;24.20;95.40
33414;DHT22;60055;41.884;12.534;2022-08-14T00:47:19;24.30;95.10
33414;DHT22;60055;41.884;12.534;2022-08-14T00:49:50;24.30;94.90
33414;DHT22;60055;41.884;12.534;2022-08-14T00:52:17;24.10;95.00
33414;DHT22;60055;41.884;12.534;2022-08-14T00:54:43;24.10;95.00
33414;DHT22;60055;41.884;12.534;2022-08-14T00:57:10;24.10;94.90
33414;DHT22;60055;41.884;12.534;2022-08-14T00:59:36;24.10;95.00
33414;DHT22;60055;41.884;12.534;2022-08-14T01:02:02;24.10;94.70
33414;DHT22;60055;41.884;12.534;2022-08-14T01:04:29;24.10;94.60
33414;DHT22;60055;41.884;12.534;2022-08-14T01:06:58;24.10;94.90
33414;DHT22;60055;41.884;12.534;2022-08-14T01:09:25;24.00;94.70
33414;DHT22;60055;41.884;12.534;2022-08-14T01:11:54;24.00;94.40
33414;DHT22;60055;41.884;12.534;2022-08-14T01:14:21;24.10;94.00
33414;DHT22;60055;41.884;12.534;2022-08-14T01:16:47;24.00;93.40
33414;DHT22;60055;41.884;12.534;2022-08-14T01:19:13;24.00;93.40
33414;DHT22;60055;41.884;12.534;2022-08-14T01:21:58;23.90;93.10
33414;DHT22;60055;41.884;12.534;2022-08-14T01:24:24;24.00;92.80
33414;DHT22;60055;41.884;12.534;2022-08-14T01:26:50;24.00;92.30
33414;DHT22;60055;41.884;12.534;2022-08-14T01:29:18;23.90;91.80
33414;DHT22;60055;41.884;12.534;2022-08-14T01:31:45;23.90;91.50
33414;DHT22;60055;41.884;12.534;2022-08-14T01:34:14;23.90;91.70
33414;DHT22;60055;41.884;12.534;2022-08-14T01:36:40;23.80;91.30
33414;DHT22;60055;41.884;12.534;2022-08-14T01:39:11;23.80;91.20
33414;DHT22;60055;41.884;12.534;2022-08-14T01:41:37;23.80;91.50
33414;DHT22;60055;41.884;12.534;2022-08-14T01:44:06;23.80;91.10
33414;DHT22;60055;41.884;12.534;2022-08-14T01:46:37;23.70;91.10
33414;DHT22;60055;41.884;12.534;2022-08-14T01:49:07;23.70;91.20
33414;DHT22;60055;41.884;12.534;2022-08-14T01:51:34;23.60;91.30
33414;DHT22;60055;41.884;12.534;2022-08-14T01:54:05;23.80;91.10
33414;DHT22;60055;41.884;12.534;2022-08-14T01:56:37;23.70;91.00
33414;DHT22;60055;41.884;12.534;2022-08-14T02:01:30;23.60;91.20
33414;DHT22;60055;41.884;12.534;2022-08-14T02:03:56;23.50;91.10
33414;DHT22;60055;41.884;12.534;2022-08-14T02:06:22;23.60;91.30
33414;DHT22;60055;41.884;12.534;2022-08-14T02:08:49;23.50;91.10
33414;DHT22;60055;41.884;12.534;2022-08-14T02:11:14;23.50;91.10
33414;DHT22;60055;41.884;12.534;2022-08-14T02:13:56;23.60;90.20
33414;DHT22;60055;41.884;12.534;2022-08-14T02:16:29;23.60;90.30
33414;DHT22;60055;41.884;12.534;2022-08-14T02:19:00;23.50;90.00
33414;DHT22;60055;41.884;12.534;2022-08-14T02:21:29;23.40;89.90
33414;DHT22;60055;41.884;12.534;2022-08-14T02:23:59;23.70;90.30
33414;DHT22;60055;41.884;12.534;2022-08-14T02:26:29;23.60;90.30
33414;DHT22;60055;41.884;12.534;2022-08-14T02:28:59;23.50;90.20
33414;DHT22;60055;41.884;12.534;2022-08-14T02:31:30;23.50;90.30
33414;DHT22;60055;41.884;12.534;2022-08-14T02:33:58;23.80;90.70
33414;DHT22;60055;41.884;12.534;2022-08-14T02:36:25;24.00;88.60
33414;DHT22;60055;41.884;12.534;2022-08-14T02:38:51;23.60;89.70
33414;DHT22;60055;41.884;12.534;2022-08-14T02:41:17;23.30;88.90
33414;DHT22;60055;41.884;12.534;2022-08-14T02:43:43;23.20;89.90
33414;DHT22;60055;41.884;12.534;2022-08-14T02:46:10;23.30;89.80
33414;DHT22;60055;41.884;12.534;2022-08-14T02:48:41;23.20;89.40
33414;DHT22;60055;41.884;12.534;2022-08-14T02:51:13;23.20;89.00
33414;DHT22;60055;41.884;12.534;2022-08-14T02:53:42;23.00;89.10
33414;DHT22;60055;41.884;12.534;2022-08-14T02:56:09;23.00;89.20
33414;DHT22;60055;41.884;12.534;2022-08-14T02:58:38;23.10;89.20
33414;DHT22;60055;41.884;12.534;2022-08-14T03:01:06;23.20;89.30
33414;DHT22;60055;41.884;12.534;2022-08-14T03:03:33;23.10;88.50
33414;DHT22;60055;41.884;12.534;2022-08-14T03:06:01;23.00;89.50
33414;DHT22;60055;41.884;12.534;2022-08-14T03:08:28;23.20;88.80
33414;DHT22;60055;41.884;12.534;2022-08-14T03:10:57;23.10;89.40
33414;DHT22;60055;41.884;12.534;2022-08-14T03:13:23;23.30;88.70
33414;DHT22;60055;41.884;12.534;2022-08-14T03:15:50;23.00;89.80
33414;DHT22;60055;41.884;12.534;2022-08-14T03:18:18;22.80;90.00
33414;DHT22;60055;41.884;12.534;2022-08-14T03:20:46;23.00;90.10
33414;DHT22;60055;41.884;12.534;2022-08-14T03:23:12;23.10;89.80
33414;DHT22;60055;41.884;12.534;2022-08-14T03:25:39;23.00;90.00
33414;DHT22;60055;41.884;12.534;2022-08-14T03:28:06;22.80;89.10
33414;DHT22;60055;41.884;12.534;2022-08-14T03:30:33;22.70;89.30
33414;DHT22;60055;41.884;12.534;2022-08-14T03:32:58;22.70;89.50
33414;DHT22;60055;41.884;12.534;2022-08-14T03:35:25;22.70;90.00
33414;DHT22;60055;41.884;12.534;2022-08-14T03:37:52;22.80;89.70
33414;DHT22;60055;41.884;12.534;2022-08-14T03:40:21;22.90;89.70
33414;DHT22;60055;41.884;12.534;2022-08-14T03:42:49;22.70;89.80
33414;DHT22;60055;41.884;12.534;2022-08-14T03:45:15;22.50;90.40
33414;DHT22;60055;41.884;12.534;2022-08-14T03:47:41;22.90;90.40
33414;DHT22;60055;41.884;12.534;2022-08-14T03:50:09;22.90;89.50
33414;DHT22;60055;41.884;12.534;2022-08-14T03:52:39;23.00;89.50
33414;DHT22;60055;41.884;12.534;2022-08-14T03:55:08;22.90;89.40
33414;DHT22;60055;41.884;12.534;2022-08-14T03:57:35;22.90;89.90
33414;DHT22;60055;41.884;12.534;2022-08-14T04:00:08;23.00;89.30
33414;DHT22;60055;41.884;12.534;2022-08-14T04:02:36;22.90;89.30
33414;DHT22;60055;41.884;12.534;2022-08-14T04:05:07;22.90;89.40
33414;DHT22;60055;41.884;12.534;2022-08-14T04:07:33;22.80;89.60
33414;DHT22;60055;41.884;12.534;2022-08-14T04:09:59;22.70;90.00
33414;DHT22;60055;41.884;12.534;2022-08-14T04:12:26;22.70;90.10
33414;DHT22;60055;41.884;12.534;2022-08-14T04:14:51;22.70;90.20
33414;DHT22;60055;41.884;12.534;2022-08-14T04:17:18;22.80;90.20
33414;DHT22;60055;41.884;12.534;2022-08-14T04:19:44;22.50;90.40
33414;DHT22;60055;41.884;12.534;2022-08-14T04:22:11;22.50;90.50
33414;DHT22;60055;41.884;12.534;2022-08-14T04:24:38;22.40;90.60
33414;DHT22;60055;41.884;12.534;2022-08-14T04:27:06;22.50;90.70
33414;DHT22;60055;41.884;12.534;2022-08-14T04:29:38;22.60;90.60
33414;DHT22;60055;41.884;12.534;2022-08-14T04:32:06;22.80;90.60
33414;DHT22;60055;41.884;12.534;2022-08-14T04:34:33;23.20;90.10
33414;DHT22;60055;41.884;12.534;2022-08-14T04:36:59;22.90;90.50
33414;DHT22;60055;41.884;12.534;2022-08-14T04:39:43;22.90;90.20
33414;DHT22;60055;41.884;12.534;2022-08-14T04:42:27;22.90;90.30
33414;DHT22;60055;41.884;12.534;2022-08-14T04:45:11;22.80;90.20
33414;DHT22;60055;41.884;12.534;2022-08-14T04:47:39;22.70;90.20
33414;DHT22;60055;41.884;12.534;2022-08-14T04:50:23;22.60;90.00
33414;DHT22;60055;41.884;12.534;2022-08-14T04:52:49;22.50;90.00
33414;DHT22;60055;41.884;12.534;2022-08-14T04:55:15;22.50;90.20
33414;DHT22;60055;41.884;12.534;2022-08-14T04:57:40;22.80;90.00
33414;DHT22;60055;41.884;12.534;2022-08-14T05:00:07;22.80;89.50
33414;DHT22;60055;41.884;12.534;2022-08-14T05:02:34;23.00;89.60
33414;DHT22;60055;41.884;12.534;2022-08-14T05:05:00;23.00;88.80
33414;DHT22;60055;41.884;12.534;2022-08-14T05:07:26;23.10;88.30
33414;DHT22;60055;41.884;12.534;2022-08-14T05:09:52;23.20;88.00
33414;DHT22;60055;41.884;12.534;2022-08-14T05:12:17;23.30;86.80
33414;DHT22;60055;41.884;12.534;2022-08-14T05:14:43;23.50;86.30
33414;DHT22;60055;41.884;12.534;2022-08-14T05:17:10;23.70;85.20
33414;DHT22;60055;41.884;12.534;2022-08-14T05:19:36;23.80;84.80
33414;DHT22;60055;41.884;12.534;2022-08-14T05:22:01;23.70;84.50
33414;DHT22;60055;41.884;12.534;2022-08-14T05:24:28;23.80;84.10
33414;DHT22;60055;41.884;12.534;2022-08-14T05:26:54;24.00;83.80
33414;DHT22;60055;41.884;12.534;2022-08-14T05:29:20;24.10;82.90
33414;DHT22;60055;41.884;12.534;2022-08-14T05:31:45;24.10;82.70
33414;DHT22;60055;41.884;12.534;2022-08-14T05:34:11;24.20;82.50
33414;DHT22;60055;41.884;12.534;2022-08-14T05:36:37;24.20;82.40
33414;DHT22;60055;41.884;12.534;2022-08-14T05:39:04;24.40;82.00
33414;DHT22;60055;41.884;12.534;2022-08-14T05:41:29;24.40;82.30
33414;DHT22;60055;41.884;12.534;2022-08-14T05:43:57;24.40;82.20
33414;DHT22;60055;41.884;12.534;2022-08-14T05:46:23;24.60;81.50
33414;DHT22;60055;41.884;12.534;2022-08-14T05:48:52;24.90;81.30
33414;DHT22;60055;41.884;12.534;2022-08-14T05:51:19;24.90;81.30
33414;DHT22;60055;41.884;12.534;2022-08-14T05:53:45;24.70;81.30
33414;DHT22;60055;41.884;12.534;2022-08-14T05:56:11;24.60;81.50
33414;DHT22;60055;41.884;12.534;2022-08-14T05:58:37;25.20;79.80
33414;DHT22;60055;41.884;12.534;2022-08-14T06:01:03;25.40;79.30
33414;DHT22;60055;41.884;12.534;2022-08-14T06:03:28;25.30;78.50
33414;DHT22;60055;41.884;12.534;2022-08-14T06:05:54;24.40;80.80
33414;DHT22;60055;41.884;12.534;2022-08-14T06:08:28;24.60;80.50
33414;DHT22;60055;41.884;12.534;2022-08-14T06:10:57;24.70;79.40
33414;DHT22;60055;41.884;12.534;2022-08-14T06:13:48;25.10;78.70
33414;DHT22;60055;41.884;12.534;2022-08-14T06:16:14;25.10;78.20
33414;DHT22;60055;41.884;12.534;2022-08-14T06:18:41;25.00;77.80
33414;DHT22;60055;41.884;12.534;2022-08-14T06:21:07;24.90;78.40
33414;DHT22;60055;41.884;12.534;2022-08-14T06:23:33;25.10;77.90
33414;DHT22;60055;41.884;12.534;2022-08-14T06:25:59;25.30;77.70
33414;DHT22;60055;41.884;12.534;2022-08-14T06:28:26;25.10;77.10
33414;DHT22;60055;41.884;12.534;2022-08-14T06:30:52;25.70;76.60
33414;DHT22;60055;41.884;12.534;2022-08-14T06:33:19;25.70;76.00
33414;DHT22;60055;41.884;12.534;2022-08-14T06:35:47;25.60;75.60
33414;DHT22;60055;41.884;12.534;2022-08-14T06:38:20;25.60;75.80
33414;DHT22;60055;41.884;12.534;2022-08-14T06:40:47;25.70;75.80
33414;DHT22;60055;41.884;12.534;2022-08-14T06:43:14;25.90;75.10
33414;DHT22;60055;41.884;12.534;2022-08-14T06:45:41;25.50;76.00
33414;DHT22;60055;41.884;12.534;2022-08-14T06:48:21;25.10;76.40
33414;DHT22;60055;41.884;12.534;2022-08-14T06:50:48;25.60;75.00
33414;DHT22;60055;41.884;12.534;2022-08-14T06:53:14;26.00;74.70
33414;DHT22;60055;41.884;12.534;2022-08-14T06:55:41;26.70;73.10
33414;DHT22;60055;41.884;12.534;2022-08-14T06:58:14;26.80;71.70
33414;DHT22;60055;41.884;12.534;2022-08-14T07:00:40;26.90;71.20
33414;DHT22;60055;41.884;12.534;2022-08-14T07:03:26;26.70;71.30
33414;DHT22;60055;41.884;12.534;2022-08-14T07:06:12;26.30;72.40
33414;DHT22;60055;41.884;12.534;2022-08-14T07:08:38;26.80;71.70
33414;DHT22;60055;41.884;12.534;2022-08-14T07:11:03;26.90;71.70
33414;DHT22;60055;41.884;12.534;2022-08-14T07:13:29;27.10;71.60
33414;DHT22;60055;41.884;12.534;2022-08-14T07:15:56;27.40;70.90
33414;DHT22;60055;41.884;12.534;2022-08-14T07:18:27;27.40;70.90
33414;DHT22;60055;41.884;12.534;2022-08-14T07:20:53;27.50;70.60
33414;DHT22;60055;41.884;12.534;2022-08-14T07:23:20;27.90;70.30
33414;DHT22;60055;41.884;12.534;2022-08-14T07:25:50;27.30;69.80
33414;DHT22;60055;41.884;12.534;2022-08-14T07:30:52;26.80;71.80
33414;DHT22;60055;41.884;12.534;2022-08-14T07:33:23;26.70;72.60
33414;DHT22;60055;41.884;12.534;2022-08-14T07:35:49;26.70;72.10
33414;DHT22;60055;41.884;12.534;2022-08-14T07:38:20;26.30;72.50
33414;DHT22;60055;41.884;12.534;2022-08-14T07:40:47;26.00;73.80
33414;DHT22;60055;41.884;12.534;2022-08-14T07:43:13;26.10;73.10
33414;DHT22;60055;41.884;12.534;2022-08-14T07:45:39;26.00;72.60
33414;DHT22;60055;41.884;12.534;2022-08-14T07:48:05;26.10;72.90
33414;DHT22;60055;41.884;12.534;2022-08-14T07:50:32;26.60;72.10
33414;DHT22;60055;41.884;12.534;2022-08-14T07:52:58;26.90;71.40
33414;DHT22;60055;41.884;12.534;2022-08-14T07:55:24;27.00;70.30
33414;DHT22;60055;41.884;12.534;2022-08-14T07:57:50;27.20;70.30
33414;DHT22;60055;41.884;12.534;2022-08-14T08:00:19;26.90;70.60
33414;DHT22;60055;41.884;12.534;2022-08-14T08:02:48;27.30;69.50
33414;DHT22;60055;41.884;12.534;2022-08-14T08:05:16;27.40;68.80
33414;DHT22;60055;41.884;12.534;2022-08-14T08:07:43;27.80;67.90
33414;DHT22;60055;41.884;12.534;2022-08-14T08:10:22;27.70;66.80
33414;DHT22;60055;41.884;12.534;2022-08-14T08:15:29;27.90;67.00
33414;DHT22;60055;41.884;12.534;2022-08-14T08:17:56;27.30;66.40
33414;DHT22;60055;41.884;12.534;2022-08-14T08:20:23;27.30;67.30
33414;DHT22;60055;41.884;12.534;2022-08-14T08:22:50;27.50;66.90
33414;DHT22;60055;41.884;12.534;2022-08-14T08:25:19;27.60;66.80
33414;DHT22;60055;41.884;12.534;2022-08-14T08:28:05;28.00;65.80
33414;DHT22;60055;41.884;12.534;2022-08-14T08:30:36;28.50;65.10
33414;DHT22;60055;41.884;12.534;2022-08-14T08:33:04;28.90;65.20
33414;DHT22;60055;41.884;12.534;2022-08-14T08:35:33;28.80;63.60
33414;DHT22;60055;41.884;12.534;2022-08-14T08:38:05;28.90;64.00
33414;DHT22;60055;41.884;12.534;2022-08-14T08:40:37;28.40;64.60
33414;DHT22;60055;41.884;12.534;2022-08-14T08:43:06;28.40;64.50
33414;DHT22;60055;41.884;12.534;2022-08-14T08:45:34;28.50;64.90
33414;DHT22;60055;41.884;12.534;2022-08-14T08:48:01;28.20;65.00
33414;DHT22;60055;41.884;12.534;2022-08-14T08:50:37;28.50;64.90
33414;DHT22;60055;41.884;12.534;2022-08-14T08:53:08;28.60;63.80
33414;DHT22;60055;41.884;12.534;2022-08-14T08:55:39;28.90;63.30
33414;DHT22;60055;41.884;12.534;2022-08-14T08:58:10;29.00;63.00
33414;DHT22;60055;41.884;12.534;2022-08-14T09:00:38;28.80;63.20
33414;DHT22;60055;41.884;12.534;2022-08-14T09:03:09;28.90;63.50
33414;DHT22;60055;41.884;12.534;2022-08-14T09:05:47;29.00;63.50
33414;DHT22;60055;41.884;12.534;2022-08-14T09:08:22;29.60;63.00
33414;DHT22;60055;41.884;12.534;2022-08-14T09:10:52;29.70;62.40
33414;DHT22;60055;41.884;12.534;2022-08-14T09:13:19;29.60;62.20
33414;DHT22;60055;41.884;12.534;2022-08-14T09:15:48;29.50;61.80
33414;DHT22;60055;41.884;12.534;2022-08-14T09:18:16;28.80;62.20
33414;DHT22;60055;41.884;12.534;2022-08-14T09:20:45;29.00;62.60
33414;DHT22;60055;41.884;12.534;2022-08-14T09:23:13;29.00;61.30
33414;DHT22;60055;41.884;12.534;2022-08-14T09:25:41;29.20;60.30
33414;DHT22;60055;41.884;12.534;2022-08-14T09:28:07;29.50;58.80
33414;DHT22;60055;41.884;12.534;2022-08-14T09:30:36;29.80;59.00
33414;DHT22;60055;41.884;12.534;2022-08-14T09:38:03;29.60;59.80
33414;DHT22;60055;41.884;12.534;2022-08-14T09:40:41;29.70;59.30
33414;DHT22;60055;41.884;12.534;2022-08-14T09:45:45;30.00;58.90
33414;DHT22;60055;41.884;12.534;2022-08-14T09:48:19;29.70;58.50
33414;DHT22;60055;41.884;12.534;2022-08-14T09:55:58;29.80;59.20
33414;DHT22;60055;41.884;12.534;2022-08-14T09:58:37;29.70;58.90
33414;DHT22;60055;41.884;12.534;2022-08-14T10:01:14;29.50;58.90
33414;DHT22;60055;41.884;12.534;2022-08-14T10:03:52;29.70;58.50
33414;DHT22;60055;41.884;12.534;2022-08-14T10:06:27;29.40;58.70
33414;DHT22;60055;41.884;12.534;2022-08-14T10:08:57;29.70;58.10
33414;DHT22;60055;41.884;12.534;2022-08-14T10:11:29;29.80;57.80
33414;DHT22;60055;41.884;12.534;2022-08-14T10:14:09;30.30;57.50
33414;DHT22;60055;41.884;12.534;2022-08-14T10:16:41;30.30;57.60
33414;DHT22;60055;41.884;12.534;2022-08-14T10:19:10;30.10;57.70
33414;DHT22;60055;41.884;12.534;2022-08-14T10:21:42;30.20;57.40
33414;DHT22;60055;41.884;12.534;2022-08-14T10:24:23;30.10;57.60
33414;DHT22;60055;41.884;12.534;2022-08-14T10:26:57;29.90;57.60
33414;DHT22;60055;41.884;12.534;2022-08-14T10:29:35;29.90;57.70
33414;DHT22;60055;41.884;12.534;2022-08-14T10:32:03;30.10;57.40
33414;DHT22;60055;41.884;12.534;2022-08-14T10:34:36;30.30;57.10
33414;DHT22;60055;41.884;12.534;2022-08-14T10:37:12;30.30;57.00
33414;DHT22;60055;41.884;12.534;2022-08-14T10:39:39;30.30;57.50
33414;DHT22;60055;41.884;12.534;2022-08-14T10:42:10;30.30;57.00
33414;DHT22;60055;41.884;12.534;2022-08-14T10:44:44;30.40;56.80
33414;DHT22;60055;41.884;12.534;2022-08-14T10:47:11;30.40;56.80
33414;DHT22;60055;41.884;12.534;2022-08-14T10:49:56;30.60;56.90
33414;DHT22;60055;41.884;12.534;2022-08-14T10:52:26;30.70;56.80
33414;DHT22;60055;41.884;12.534;2022-08-14T10:55:07;30.60;56.70
33414;DHT22;60055;41.884;12.534;2022-08-14T10:57:44;30.60;56.40
33414;DHT22;60055;41.884;12.534;2022-08-14T11:00:14;30.30;56.70
33414;DHT22;60055;41.884;12.534;2022-08-14T11:02:40;30.30;56.90
33414;DHT22;60055;41.884;12.534;2022-08-14T11:05:09;30.40;56.90
33414;DHT22;60055;41.884;12.534;2022-08-14T11:10:21;30.70;56.30
33414;DHT22;60055;41.884;12.534;2022-08-14T11:12:50;30.60;56.40
33414;DHT22;60055;41.884;12.534;2022-08-14T11:15:20;30.60;56.40
33414;DHT22;60055;41.884;12.534;2022-08-14T11:17:48;30.50;56.60
33414;DHT22;60055;41.884;12.534;2022-08-14T11:20:17;30.50;56.40
33414;DHT22;60055;41.884;12.534;2022-08-14T11:22:43;30.60;56.60
33414;DHT22;60055;41.884;12.534;2022-08-14T11:25:11;30.70;55.90
33414;DHT22;60055;41.884;12.534;2022-08-14T11:27:40;30.80;55.70
33414;DHT22;60055;41.884;12.534;2022-08-14T11:30:12;30.70;54.80
33414;DHT22;60055;41.884;12.534;2022-08-14T11:32:39;30.80;55.10
33414;DHT22;60055;41.884;12.534;2022-08-14T11:35:10;30.70;55.20
33414;DHT22;60055;41.884;12.534;2022-08-14T11:37:36;30.60;55.00
33414;DHT22;60055;41.884;12.534;2022-08-14T11:40:04;30.60;54.60
33414;DHT22;60055;41.884;12.534;2022-08-14T11:42:39;30.80;54.80
33414;DHT22;60055;41.884;12.534;2022-08-14T11:45:05;30.90;54.90
33414;DHT22;60055;41.884;12.534;2022-08-14T11:47:36;31.00;54.90
33414;DHT22;60055;41.884;12.534;2022-08-14T11:52:38;31.00;54.40
33414;DHT22;60055;41.884;12.534;2022-08-14T11:55:08;31.10;54.50
33414;DHT22;60055;41.884;12.534;2022-08-14T11:57:35;31.10;54.40
33414;DHT22;60055;41.884;12.534;2022-08-14T12:00:10;31.50;54.20
33414;DHT22;60055;41.884;12.534;2022-08-14T12:02:47;31.60;54.30
33414;DHT22;60055;41.884;12.534;2022-08-14T12:05:13;31.70;53.90
33414;DHT22;60055;41.884;12.534;2022-08-14T12:07:51;31.40;53.20
33414;DHT22;60055;41.884;12.534;2022-08-14T12:10:19;31.50;53.70
33414;DHT22;60055;41.884;12.534;2022-08-14T12:12:47;31.50;53.60
33414;DHT22;60055;41.884;12.534;2022-08-14T12:15:14;31.70;53.10
33414;DHT22;60055;41.884;12.534;2022-08-14T12:17:45;31.80;52.30
33414;DHT22;60055;41.884;12.534;2022-08-14T12:20:16;31.50;51.70
33414;DHT22;60055;41.884;12.534;2022-08-14T12:22:44;31.70;51.60
33414;DHT22;60055;41.884;12.534;2022-08-14T12:25:29;31.90;51.20
33414;DHT22;60055;41.884;12.534;2022-08-14T12:27:56;32.00;50.90
33414;DHT22;60055;41.884;12.534;2022-08-14T12:32:54;31.90;51.20
33414;DHT22;60055;41.884;12.534;2022-08-14T12:35:21;32.10;51.40
33414;DHT22;60055;41.884;12.534;2022-08-14T12:37:51;32.30;51.10
33414;DHT22;60055;41.884;12.534;2022-08-14T12:40:18;32.10;50.30
33414;DHT22;60055;41.884;12.534;2022-08-14T12:42:49;32.00;49.60
33414;DHT22;60055;41.884;12.534;2022-08-14T12:45:29;31.90;48.70
33414;DHT22;60055;41.884;12.534;2022-08-14T12:47:59;32.10;49.30
33414;DHT22;60055;41.884;12.534;2022-08-14T12:50:39;32.40;49.80
33414;DHT22;60055;41.884;12.534;2022-08-14T12:53:07;32.40;56.20
33414;DHT22;60055;41.884;12.534;2022-08-14T12:55:34;32.10;58.10
33414;DHT22;60055;41.884;12.534;2022-08-14T12:58:01;32.20;58.60
33414;DHT22;60055;41.884;12.534;2022-08-14T13:00:31;32.00;58.70
33414;DHT22;60055;41.884;12.534;2022-08-14T13:02:57;32.10;59.50
33414;DHT22;60055;41.884;12.534;2022-08-14T13:05:27;32.00;59.80
33414;DHT22;60055;41.884;12.534;2022-08-14T13:07:57;32.20;59.90
33414;DHT22;60055;41.884;12.534;2022-08-14T13:10:23;32.20;60.20
33414;DHT22;60055;41.884;12.534;2022-08-14T13:12:55;32.20;59.90
33414;DHT22;60055;41.884;12.534;2022-08-14T13:15:21;32.20;59.60
33414;DHT22;60055;41.884;12.534;2022-08-14T13:17:51;32.00;59.20
33414;DHT22;60055;41.884;12.534;2022-08-14T13:20:24;31.90;59.20
33414;DHT22;60055;41.884;12.534;2022-08-14T13:22:51;31.90;59.70
33414;DHT22;60055;41.884;12.534;2022-08-14T13:25:24;31.80;61.20
33414;DHT22;60055;41.884;12.534;2022-08-14T13:27:55;32.00;61.50
33414;DHT22;60055;41.884;12.534;2022-08-14T13:30:24;31.90;61.20
33414;DHT22;60055;41.884;12.534;2022-08-14T13:32:54;31.70;61.30
33414;DHT22;60055;41.884;12.534;2022-08-14T13:35:21;31.80;60.70
33414;DHT22;60055;41.884;12.534;2022-08-14T13:37:47;32.00;60.40
33414;DHT22;60055;41.884;12.534;2022-08-14T13:40:17;32.10;60.10
33414;DHT22;60055;41.884;12.534;2022-08-14T13:42:46;32.20;60.00
33414;DHT22;60055;41.884;12.534;2022-08-14T13:45:12;32.10;60.10
33414;DHT22;60055;41.884;12.534;2022-08-14T13:47:39;32.10;59.70
33414;DHT22;60055;41.884;12.534;2022-08-14T13:50:08;32.20;59.80
33414;DHT22;60055;41.884;12.534;2022-08-14T13:52:49;32.30;59.80
33414;DHT22;60055;41.884;12.534;2022-08-14T13:55:29;32.10;60.00
33414;DHT22;60055;41.884;12.534;2022-08-14T13:58:00;32.30;60.60
33414;DHT22;60055;41.884;12.534;2022-08-14T14:00:26;32.40;60.30
33414;DHT22;60055;41.884;12.534;2022-08-14T14:02:52;32.20;60.50
33414;DHT22;60055;41.884;12.534;2022-08-14T14:05:20;32.10;60.80
33414;DHT22;60055;41.884;12.534;2022-08-14T14:07:49;32.10;60.50
33414;DHT22;60055;41.884;12.534;2022-08-14T14:10:17;32.10;60.30
33414;DHT22;60055;41.884;12.534;2022-08-14T14:12:45;32.10;60.00
33414;DHT22;60055;41.884;12.534;2022-08-14T14:15:15;32.20;60.40
33414;DHT22;60055;41.884;12.534;2022-08-14T14:17:43;32.10;60.80
33414;DHT22;60055;41.884;12.534;2022-08-14T14:20:13;31.90;61.20
33414;DHT22;60055;41.884;12.534;2022-08-14T14:22:40;31.80;62.00
33414;DHT22;60055;41.884;12.534;2022-08-14T14:25:10;31.60;62.60
33414;DHT22;60055;41.884;12.534;2022-08-14T14:27:40;31.90;62.20
33414;DHT22;60055;41.884;12.534;2022-08-14T14:30:11;31.80;62.10
33414;DHT22;60055;41.884;12.534;2022-08-14T14:32:39;31.90;62.00
33414;DHT22;60055;41.884;12.534;2022-08-14T14:35:12;32.00;62.30
33414;DHT22;60055;41.884;12.534;2022-08-14T14:37:40;32.10;62.00
33414;DHT22;60055;41.884;12.534;2022-08-14T14:40:07;32.10;61.70
33414;DHT22;60055;41.884;12.534;2022-08-14T14:42:33;32.00;61.60
33414;DHT22;60055;41.884;12.534;2022-08-14T14:45:20;32.10;62.10
33414;DHT22;60055;41.884;12.534;2022-08-14T14:47:51;31.80;62.20
33414;DHT22;60055;41.884;12.534;2022-08-14T14:50:18;31.80;61.90
33414;DHT22;60055;41.884;12.534;2022-08-14T14:52:45;31.70;62.70
33414;DHT22;60055;41.884;12.534;2022-08-14T14:55:12;31.70;63.00
33414;DHT22;60055;41.884;12.534;2022-08-14T14:57:39;31.70;63.00
33414;DHT22;60055;41.884;12.534;2022-08-14T15:00:11;31.80;63.20
33414;DHT22;60055;41.884;12.534;2022-08-14T15:02:40;31.60;63.30
33414;DHT22;60055;41.884;12.534;2022-08-14T15:05:07;31.60;63.10
33414;DHT22;60055;41.884;12.534;2022-08-14T15:07:36;31.50;63.40
33414;DHT22;60055;41.884;12.534;2022-08-14T15:10:06;31.30;63.00
33414;DHT22;60055;41.884;12.534;2022-08-14T15:12:32;31.50;63.40
33414;DHT22;60055;41.884;12.534;2022-08-14T15:14:58;31.50;63.50
33414;DHT22;60055;41.884;12.534;2022-08-14T15:17:24;31.50;63.30
33414;DHT22;60055;41.884;12.534;2022-08-14T15:19:50;31.40;63.00
33414;DHT22;60055;41.884;12.534;2022-08-14T15:22:16;31.40;62.70
33414;DHT22;60055;41.884;12.534;2022-08-14T15:24:42;31.50;62.50
33414;DHT22;60055;41.884;12.534;2022-08-14T15:27:08;31.50;62.30
33414;DHT22;60055;41.884;12.534;2022-08-14T15:29:34;31.20;62.20
33414;DHT22;60055;41.884;12.534;2022-08-14T15:32:07;31.20;62.20
33414;DHT22;60055;41.884;12.534;2022-08-14T15:34:33;31.10;62.50
33414;DHT22;60055;41.884;12.534;2022-08-14T15:37:00;31.10;62.80
33414;DHT22;60055;41.884;12.534;2022-08-14T15:39:26;30.80;63.40
33414;DHT22;60055;41.884;12.534;2022-08-14T15:41:53;30.90;62.60
33414;DHT22;60055;41.884;12.534;2022-08-14T15:44:19;30.80;62.90
33414;DHT22;60055;41.884;12.534;2022-08-14T15:46:45;30.50;63.20
33414;DHT22;60055;41.884;12.534;2022-08-14T15:49:10;30.50;62.70
33414;DHT22;60055;41.884;12.534;2022-08-14T15:51:36;30.50;62.80
33414;DHT22;60055;41.884;12.534;2022-08-14T15:54:02;30.50;63.40